sensor_id;sensor_type;location;lat;lon;timestamp;P1;durP1;ratioP1;P2;durP2;ratioP2
67839;SDS011;54636;51.684;5.142;2023-06-26T00:02:10;6.32;;;5.93;;
67839;SDS011;54636;51.684;5.142;2023-06-26T00:04:36;7.07;;;6.38;;
67839;SDS011;54636;51.684;5.142;2023-06-26T00:07:02;6.53;;;6.03;;
67839;SDS011;54636;51.684;5.142;2023-06-26T00:09:28;6.22;;;5.72;;
67839;SDS011;54636;51.684;5.142;2023-06-26T00:11:54;6.32;;;5.82;;
67839;SDS011;54636;51.684;5.142;2023-06-26T00:14:19;6.90;;;6.30;;
67839;SDS011;54636;51.684;5.142;2023-06-26T00:16:46;12.55;;;5.82;;
67839;SDS011;54636;51.684;5.142;2023-06-26T00:19:14;6.65;;;6.15;;
67839;SDS011;54636;51.684;5.142;2023-06-26T00:21:40;6.38;;;5.78;;
67839;SDS011;54636;51.684;5.142;2023-06-26T00:24:05;6.60;;;6.00;;
67839;SDS011;54636;51.684;5.142;2023-06-26T00:26:31;6.65;;;6.20;;
67839;SDS011;54636;51.684;5.142;2023-06-26T00:28:56;6.60;;;6.10;;
67839;SDS011;54636;51.684;5.142;2023-06-26T00:31:22;6.53;;;5.18;;
67839;SDS011;54636;51.684;5.142;2023-06-26T00:33:47;8.90;;;5.28;;
67839;SDS011;54636;51.684;5.142;2023-06-26T00:36:12;5.63;;;5.30;;
67839;SDS011;54636;51.684;5.142;2023-06-26T00:38:38;4.60;;;4.30;;
67839;SDS011;54636;51.684;5.142;2023-06-26T00:41:03;5.72;;;5.30;;
67839;SDS011;54636;51.684;5.142;2023-06-26T00:43:30;7.68;;;4.68;;
67839;SDS011;54636;51.684;5.142;2023-06-26T00:45:55;6.65;;;5.00;;
67839;SDS011;54636;51.684;5.142;2023-06-26T00:48:20;7.30;;;4.32;;
67839;SDS011;54636;51.684;5.142;2023-06-26T00:50:46;10.38;;;4.25;;
67839;SDS011;54636;51.684;5.142;2023-06-26T00:53:12;4.55;;;3.50;;
67839;SDS011;54636;51.684;5.142;2023-06-26T00:55:37;4.85;;;3.65;;
67839;SDS011;54636;51.684;5.142;2023-06-26T00:58:03;4.40;;;3.78;;
67839;SDS011;54636;51.684;5.142;2023-06-26T01:00:29;7.28;;;3.70;;
67839;SDS011;54636;51.684;5.142;2023-06-26T01:02:55;6.03;;;3.63;;
67839;SDS011;54636;51.684;5.142;2023-06-26T01:05:24;4.38;;;3.80;;
67839;SDS011;54636;51.684;5.142;2023-06-26T01:07:50;5.45;;;3.75;;
67839;SDS011;54636;51.684;5.142;2023-06-26T01:10:16;7.80;;;3.83;;
67839;SDS011;54636;51.684;5.142;2023-06-26T01:12:42;6.55;;;3.42;;
67839;SDS011;54636;51.684;5.142;2023-06-26T01:15:08;3.97;;;3.47;;
67839;SDS011;54636;51.684;5.142;2023-06-26T01:17:34;8.18;;;4.13;;
67839;SDS011;54636;51.684;5.142;2023-06-26T01:20:03;6.97;;;3.92;;
67839;SDS011;54636;51.684;5.142;2023-06-26T01:28:03;5.72;;;3.15;;
67839;SDS011;54636;51.684;5.142;2023-06-26T01:30:30;7.93;;;3.83;;
67839;SDS011;54636;51.684;5.142;2023-06-26T01:32:58;4.82;;;3.58;;
67839;SDS011;54636;51.684;5.142;2023-06-26T01:35:24;5.43;;;3.80;;
67839;SDS011;54636;51.684;5.142;2023-06-26T01:37:51;7.18;;;3.60;;
67839;SDS011;54636;51.684;5.142;2023-06-26T01:40:16;8.57;;;3.50;;
67839;SDS011;54636;51.684;5.142;2023-06-26T01:42:42;9.40;;;3.90;;
67839;SDS011;54636;51.684;5.142;2023-06-26T01:45:20;6.93;;;3.20;;
67839;SDS011;54636;51.684;5.142;2023-06-26T01:47:51;8.30;;;3.80;;
67839;SDS011;54636;51.684;5.142;2023-06-26T01:50:22;10.35;;;3.88;;
67839;SDS011;54636;51.684;5.142;2023-06-26T01:58:07;7.22;;;3.80;;
67839;SDS011;54636;51.684;5.142;2023-06-26T02:00:33;9.50;;;3.78;;
67839;SDS011;54636;51.684;5.142;2023-06-26T02:03:00;9.75;;;3.08;;
67839;SDS011;54636;51.684;5.142;2023-06-26T02:05:26;5.40;;;3.70;;
67839;SDS011;54636;51.684;5.142;2023-06-26T02:07:51;10.55;;;3.88;;
67839;SDS011;54636;51.684;5.142;2023-06-26T02:10:17;9.18;;;4.07;;
67839;SDS011;54636;51.684;5.142;2023-06-26T02:12:42;7.65;;;3.42;;
67839;SDS011;54636;51.684;5.142;2023-06-26T02:15:08;11.20;;;4.25;;
67839;SDS011;54636;51.684;5.142;2023-06-26T02:17:33;7.90;;;3.75;;
67839;SDS011;54636;51.684;5.142;2023-06-26T02:19:59;7.93;;;3.58;;
67839;SDS011;54636;51.684;5.142;2023-06-26T02:22:24;7.25;;;3.58;;
67839;SDS011;54636;51.684;5.142;2023-06-26T02:24:50;4.75;;;3.17;;
67839;SDS011;54636;51.684;5.142;2023-06-26T02:27:15;11.43;;;3.38;;
67839;SDS011;54636;51.684;5.142;2023-06-26T02:29:41;9.38;;;4.05;;
67839;SDS011;54636;51.684;5.142;2023-06-26T02:32:07;9.35;;;3.60;;
67839;SDS011;54636;51.684;5.142;2023-06-26T02:34:34;7.20;;;3.60;;
67839;SDS011;54636;51.684;5.142;2023-06-26T02:37:00;8.68;;;3.65;;
67839;SDS011;54636;51.684;5.142;2023-06-26T02:39:25;11.77;;;4.18;;
67839;SDS011;54636;51.684;5.142;2023-06-26T02:41:51;10.57;;;4.10;;
67839;SDS011;54636;51.684;5.142;2023-06-26T02:44:17;12.68;;;4.57;;
67839;SDS011;54636;51.684;5.142;2023-06-26T02:46:42;12.05;;;4.32;;
67839;SDS011;54636;51.684;5.142;2023-06-26T02:49:08;14.40;;;4.80;;
67839;SDS011;54636;51.684;5.142;2023-06-26T02:51:33;9.82;;;4.00;;
67839;SDS011;54636;51.684;5.142;2023-06-26T02:53:59;13.73;;;4.80;;
67839;SDS011;54636;51.684;5.142;2023-06-26T02:56:25;12.52;;;4.47;;
67839;SDS011;54636;51.684;5.142;2023-06-26T02:58:53;17.30;;;4.93;;
67839;SDS011;54636;51.684;5.142;2023-06-26T03:01:22;16.00;;;4.32;;
67839;SDS011;54636;51.684;5.142;2023-06-26T03:03:47;17.65;;;4.85;;
67839;SDS011;54636;51.684;5.142;2023-06-26T03:06:13;13.50;;;4.82;;
67839;SDS011;54636;51.684;5.142;2023-06-26T03:08:39;14.75;;;4.50;;
67839;SDS011;54636;51.684;5.142;2023-06-26T03:11:05;13.10;;;5.07;;
67839;SDS011;54636;51.684;5.142;2023-06-26T03:13:32;8.57;;;4.60;;
67839;SDS011;54636;51.684;5.142;2023-06-26T03:15:59;13.55;;;4.90;;
67839;SDS011;54636;51.684;5.142;2023-06-26T03:18:25;15.40;;;5.13;;
67839;SDS011;54636;51.684;5.142;2023-06-26T03:20:50;16.42;;;5.03;;
67839;SDS011;54636;51.684;5.142;2023-06-26T03:23:15;21.63;;;4.82;;
67839;SDS011;54636;51.684;5.142;2023-06-26T03:25:41;11.10;;;4.63;;
67839;SDS011;54636;51.684;5.142;2023-06-26T03:28:06;18.30;;;5.68;;
67839;SDS011;54636;51.684;5.142;2023-06-26T03:30:32;16.63;;;4.65;;
67839;SDS011;54636;51.684;5.142;2023-06-26T03:32:57;17.52;;;5.40;;
67839;SDS011;54636;51.684;5.142;2023-06-26T03:35:23;16.33;;;4.85;;
67839;SDS011;54636;51.684;5.142;2023-06-26T03:37:48;16.95;;;5.00;;
67839;SDS011;54636;51.684;5.142;2023-06-26T03:40:14;19.52;;;5.15;;
67839;SDS011;54636;51.684;5.142;2023-06-26T03:42:39;17.02;;;5.68;;
67839;SDS011;54636;51.684;5.142;2023-06-26T03:45:05;12.23;;;4.50;;
67839;SDS011;54636;51.684;5.142;2023-06-26T03:47:31;18.77;;;5.78;;
67839;SDS011;54636;51.684;5.142;2023-06-26T03:49:56;20.25;;;6.15;;
67839;SDS011;54636;51.684;5.142;2023-06-26T03:52:21;15.93;;;5.22;;
67839;SDS011;54636;51.684;5.142;2023-06-26T03:54:47;13.15;;;5.05;;
67839;SDS011;54636;51.684;5.142;2023-06-26T03:57:13;15.48;;;5.00;;
67839;SDS011;54636;51.684;5.142;2023-06-26T03:59:39;15.85;;;4.38;;
67839;SDS011;54636;51.684;5.142;2023-06-26T04:02:04;16.90;;;6.00;;
67839;SDS011;54636;51.684;5.142;2023-06-26T04:04:30;13.35;;;4.78;;
67839;SDS011;54636;51.684;5.142;2023-06-26T04:06:55;22.98;;;5.40;;
67839;SDS011;54636;51.684;5.142;2023-06-26T04:09:20;16.58;;;5.10;;
67839;SDS011;54636;51.684;5.142;2023-06-26T04:11:46;19.73;;;4.90;;
67839;SDS011;54636;51.684;5.142;2023-06-26T04:14:11;12.30;;;4.90;;
67839;SDS011;54636;51.684;5.142;2023-06-26T04:16:37;11.57;;;5.05;;
67839;SDS011;54636;51.684;5.142;2023-06-26T04:19:03;15.55;;;4.93;;
67839;SDS011;54636;51.684;5.142;2023-06-26T04:21:30;17.70;;;5.40;;
67839;SDS011;54636;51.684;5.142;2023-06-26T04:23:55;21.98;;;5.70;;
67839;SDS011;54636;51.684;5.142;2023-06-26T04:26:21;17.10;;;4.50;;
67839;SDS011;54636;51.684;5.142;2023-06-26T04:28:46;19.50;;;5.10;;
67839;SDS011;54636;51.684;5.142;2023-06-26T04:31:12;17.00;;;5.78;;
67839;SDS011;54636;51.684;5.142;2023-06-26T04:33:37;19.13;;;5.00;;
67839;SDS011;54636;51.684;5.142;2023-06-26T04:36:03;17.83;;;5.25;;
67839;SDS011;54636;51.684;5.142;2023-06-26T04:38:30;18.13;;;5.55;;
67839;SDS011;54636;51.684;5.142;2023-06-26T04:40:56;17.50;;;5.68;;
67839;SDS011;54636;51.684;5.142;2023-06-26T04:43:21;17.50;;;5.45;;
67839;SDS011;54636;51.684;5.142;2023-06-26T04:45:46;16.30;;;4.90;;
67839;SDS011;54636;51.684;5.142;2023-06-26T04:48:12;16.50;;;5.15;;
67839;SDS011;54636;51.684;5.142;2023-06-26T04:50:38;18.67;;;5.57;;
67839;SDS011;54636;51.684;5.142;2023-06-26T04:53:03;18.75;;;5.10;;
67839;SDS011;54636;51.684;5.142;2023-06-26T04:55:28;20.17;;;5.25;;
67839;SDS011;54636;51.684;5.142;2023-06-26T04:57:55;16.90;;;5.05;;
67839;SDS011;54636;51.684;5.142;2023-06-26T05:00:20;24.92;;;6.28;;
67839;SDS011;54636;51.684;5.142;2023-06-26T05:02:45;12.13;;;4.80;;
67839;SDS011;54636;51.684;5.142;2023-06-26T05:05:11;16.48;;;5.05;;
67839;SDS011;54636;51.684;5.142;2023-06-26T05:07:37;18.35;;;4.55;;
67839;SDS011;54636;51.684;5.142;2023-06-26T05:10:03;18.65;;;4.45;;
67839;SDS011;54636;51.684;5.142;2023-06-26T05:12:29;18.48;;;5.07;;
67839;SDS011;54636;51.684;5.142;2023-06-26T05:14:54;15.35;;;4.68;;
67839;SDS011;54636;51.684;5.142;2023-06-26T05:17:20;23.50;;;5.45;;
67839;SDS011;54636;51.684;5.142;2023-06-26T05:19:46;18.40;;;5.07;;
67839;SDS011;54636;51.684;5.142;2023-06-26T05:22:12;22.15;;;5.00;;
67839;SDS011;54636;51.684;5.142;2023-06-26T05:24:38;19.83;;;4.53;;
67839;SDS011;54636;51.684;5.142;2023-06-26T05:27:04;17.85;;;4.50;;
67839;SDS011;54636;51.684;5.142;2023-06-26T05:29:31;18.85;;;5.25;;
67839;SDS011;54636;51.684;5.142;2023-06-26T05:31:57;17.17;;;4.63;;
67839;SDS011;54636;51.684;5.142;2023-06-26T05:34:24;11.98;;;4.10;;
67839;SDS011;54636;51.684;5.142;2023-06-26T05:36:50;17.80;;;4.70;;
67839;SDS011;54636;51.684;5.142;2023-06-26T05:39:17;15.90;;;3.95;;
67839;SDS011;54636;51.684;5.142;2023-06-26T05:41:43;15.85;;;4.60;;
67839;SDS011;54636;51.684;5.142;2023-06-26T05:44:09;15.32;;;4.03;;
67839;SDS011;54636;51.684;5.142;2023-06-26T05:46:35;11.93;;;3.92;;
67839;SDS011;54636;51.684;5.142;2023-06-26T05:49:00;11.00;;;3.83;;
67839;SDS011;54636;51.684;5.142;2023-06-26T05:51:26;23.02;;;4.35;;
67839;SDS011;54636;51.684;5.142;2023-06-26T05:53:53;17.92;;;4.63;;
67839;SDS011;54636;51.684;5.142;2023-06-26T05:56:18;17.85;;;4.47;;
67839;SDS011;54636;51.684;5.142;2023-06-26T05:58:44;12.88;;;3.55;;
67839;SDS011;54636;51.684;5.142;2023-06-26T06:01:11;12.45;;;4.13;;
67839;SDS011;54636;51.684;5.142;2023-06-26T06:03:36;17.23;;;3.60;;
67839;SDS011;54636;51.684;5.142;2023-06-26T06:06:02;9.93;;;4.13;;
67839;SDS011;54636;51.684;5.142;2023-06-26T06:08:28;8.75;;;2.97;;
67839;SDS011;54636;51.684;5.142;2023-06-26T06:10:53;8.27;;;3.63;;
67839;SDS011;54636;51.684;5.142;2023-06-26T06:13:19;8.00;;;3.20;;
67839;SDS011;54636;51.684;5.142;2023-06-26T06:15:44;8.00;;;3.38;;
67839;SDS011;54636;51.684;5.142;2023-06-26T06:18:10;11.52;;;3.60;;
67839;SDS011;54636;51.684;5.142;2023-06-26T06:20:35;16.80;;;3.38;;
67839;SDS011;54636;51.684;5.142;2023-06-26T06:23:00;11.75;;;3.47;;
67839;SDS011;54636;51.684;5.142;2023-06-26T06:25:26;5.78;;;2.50;;
67839;SDS011;54636;51.684;5.142;2023-06-26T06:27:51;10.10;;;3.30;;
67839;SDS011;54636;51.684;5.142;2023-06-26T06:30:17;8.98;;;2.65;;
67839;SDS011;54636;51.684;5.142;2023-06-26T06:32:42;9.27;;;2.67;;
67839;SDS011;54636;51.684;5.142;2023-06-26T06:35:08;6.60;;;3.65;;
67839;SDS011;54636;51.684;5.142;2023-06-26T06:37:35;7.03;;;3.28;;
67839;SDS011;54636;51.684;5.142;2023-06-26T06:40:08;6.90;;;3.20;;
67839;SDS011;54636;51.684;5.142;2023-06-26T06:42:34;8.95;;;2.50;;
67839;SDS011;54636;51.684;5.142;2023-06-26T06:45:01;8.55;;;2.97;;
67839;SDS011;54636;51.684;5.142;2023-06-26T06:47:31;3.90;;;2.25;;
67839;SDS011;54636;51.684;5.142;2023-06-26T06:49:57;7.38;;;3.10;;
67839;SDS011;54636;51.684;5.142;2023-06-26T06:52:22;5.35;;;2.28;;
67839;SDS011;54636;51.684;5.142;2023-06-26T06:54:51;6.50;;;2.67;;
67839;SDS011;54636;51.684;5.142;2023-06-26T06:57:18;6.93;;;2.45;;
67839;SDS011;54636;51.684;5.142;2023-06-26T06:59:44;5.25;;;2.35;;
67839;SDS011;54636;51.684;5.142;2023-06-26T07:02:10;4.75;;;3.03;;
67839;SDS011;54636;51.684;5.142;2023-06-26T07:04:35;8.88;;;2.53;;
67839;SDS011;54636;51.684;5.142;2023-06-26T07:07:00;10.02;;;2.42;;
67839;SDS011;54636;51.684;5.142;2023-06-26T07:09:26;7.03;;;2.10;;
67839;SDS011;54636;51.684;5.142;2023-06-26T07:11:51;9.07;;;2.25;;
67839;SDS011;54636;51.684;5.142;2023-06-26T07:14:16;3.42;;;1.80;;
67839;SDS011;54636;51.684;5.142;2023-06-26T07:16:42;3.92;;;2.03;;
67839;SDS011;54636;51.684;5.142;2023-06-26T07:19:07;4.47;;;1.73;;
67839;SDS011;54636;51.684;5.142;2023-06-26T07:21:32;5.18;;;1.88;;
67839;SDS011;54636;51.684;5.142;2023-06-26T07:23:58;6.72;;;2.58;;
67839;SDS011;54636;51.684;5.142;2023-06-26T07:26:23;8.35;;;1.83;;
67839;SDS011;54636;51.684;5.142;2023-06-26T07:28:48;2.88;;;1.55;;
67839;SDS011;54636;51.684;5.142;2023-06-26T07:31:14;15.18;;;1.83;;
67839;SDS011;54636;51.684;5.142;2023-06-26T07:33:41;1.52;;;1.25;;
67839;SDS011;54636;51.684;5.142;2023-06-26T07:36:07;3.65;;;1.80;;
67839;SDS011;54636;51.684;5.142;2023-06-26T07:38:32;6.13;;;1.95;;
67839;SDS011;54636;51.684;5.142;2023-06-26T07:40:58;5.28;;;1.17;;
67839;SDS011;54636;51.684;5.142;2023-06-26T07:43:23;4.88;;;1.58;;
67839;SDS011;54636;51.684;5.142;2023-06-26T07:45:49;7.68;;;1.90;;
67839;SDS011;54636;51.684;5.142;2023-06-26T07:48:16;2.63;;;1.48;;
67839;SDS011;54636;51.684;5.142;2023-06-26T07:50:41;3.30;;;1.10;;
67839;SDS011;54636;51.684;5.142;2023-06-26T07:53:07;2.35;;;1.10;;
67839;SDS011;54636;51.684;5.142;2023-06-26T07:55:32;7.72;;;1.73;;
67839;SDS011;54636;51.684;5.142;2023-06-26T07:57:58;6.15;;;1.55;;
67839;SDS011;54636;51.684;5.142;2023-06-26T08:00:23;6.78;;;1.42;;
67839;SDS011;54636;51.684;5.142;2023-06-26T08:02:49;4.82;;;1.42;;
67839;SDS011;54636;51.684;5.142;2023-06-26T08:05:14;4.72;;;1.60;;
67839;SDS011;54636;51.684;5.142;2023-06-26T08:07:40;3.85;;;1.70;;
67839;SDS011;54636;51.684;5.142;2023-06-26T08:10:05;7.20;;;1.70;;
67839;SDS011;54636;51.684;5.142;2023-06-26T08:12:30;3.42;;;1.40;;
67839;SDS011;54636;51.684;5.142;2023-06-26T08:14:56;7.15;;;1.60;;
67839;SDS011;54636;51.684;5.142;2023-06-26T08:17:21;4.78;;;1.58;;
67839;SDS011;54636;51.684;5.142;2023-06-26T08:19:47;5.30;;;1.58;;
67839;SDS011;54636;51.684;5.142;2023-06-26T08:22:12;3.33;;;1.30;;
67839;SDS011;54636;51.684;5.142;2023-06-26T08:24:38;4.68;;;1.48;;
67839;SDS011;54636;51.684;5.142;2023-06-26T08:27:03;4.05;;;1.75;;
67839;SDS011;54636;51.684;5.142;2023-06-26T08:29:29;1.77;;;1.23;;
67839;SDS011;54636;51.684;5.142;2023-06-26T08:31:54;2.83;;;1.48;;
67839;SDS011;54636;51.684;5.142;2023-06-26T08:34:19;2.38;;;1.30;;
67839;SDS011;54636;51.684;5.142;2023-06-26T08:36:45;3.30;;;1.40;;
67839;SDS011;54636;51.684;5.142;2023-06-26T08:39:10;8.13;;;1.48;;
67839;SDS011;54636;51.684;5.142;2023-06-26T08:41:36;7.75;;;1.42;;
67839;SDS011;54636;51.684;5.142;2023-06-26T08:44:02;4.95;;;1.38;;
67839;SDS011;54636;51.684;5.142;2023-06-26T08:46:28;5.00;;;1.30;;
67839;SDS011;54636;51.684;5.142;2023-06-26T08:49:00;4.43;;;1.95;;
67839;SDS011;54636;51.684;5.142;2023-06-26T08:51:27;3.10;;;1.30;;
67839;SDS011;54636;51.684;5.142;2023-06-26T08:53:58;10.68;;;1.40;;
67839;SDS011;54636;51.684;5.142;2023-06-26T08:56:27;4.18;;;1.33;;
67839;SDS011;54636;51.684;5.142;2023-06-26T08:58:55;3.63;;;1.35;;
67839;SDS011;54636;51.684;5.142;2023-06-26T09:01:21;3.97;;;1.50;;
67839;SDS011;54636;51.684;5.142;2023-06-26T09:03:48;5.18;;;1.38;;
67839;SDS011;54636;51.684;5.142;2023-06-26T09:06:14;6.85;;;1.92;;
67839;SDS011;54636;51.684;5.142;2023-06-26T09:08:39;1.98;;;1.48;;
67839;SDS011;54636;51.684;5.142;2023-06-26T09:11:05;5.47;;;1.30;;
67839;SDS011;54636;51.684;5.142;2023-06-26T09:13:30;2.35;;;1.48;;
67839;SDS011;54636;51.684;5.142;2023-06-26T09:15:56;5.43;;;1.20;;
67839;SDS011;54636;51.684;5.142;2023-06-26T09:18:22;2.95;;;1.73;;
67839;SDS011;54636;51.684;5.142;2023-06-26T09:20:47;5.53;;;1.35;;
67839;SDS011;54636;51.684;5.142;2023-06-26T09:23:13;3.60;;;1.20;;
67839;SDS011;54636;51.684;5.142;2023-06-26T09:25:39;2.97;;;1.30;;
67839;SDS011;54636;51.684;5.142;2023-06-26T09:28:06;3.53;;;1.00;;
67839;SDS011;54636;51.684;5.142;2023-06-26T09:30:32;5.28;;;1.35;;
67839;SDS011;54636;51.684;5.142;2023-06-26T09:32:57;3.10;;;1.25;;
67839;SDS011;54636;51.684;5.142;2023-06-26T09:35:42;2.40;;;0.98;;
67839;SDS011;54636;51.684;5.142;2023-06-26T09:38:08;4.20;;;1.50;;
67839;SDS011;54636;51.684;5.142;2023-06-26T09:40:34;2.00;;;1.23;;
67839;SDS011;54636;51.684;5.142;2023-06-26T09:43:06;2.63;;;0.88;;
67839;SDS011;54636;51.684;5.142;2023-06-26T09:45:33;3.65;;;1.35;;
67839;SDS011;54636;51.684;5.142;2023-06-26T09:48:01;2.33;;;1.13;;
67839;SDS011;54636;51.684;5.142;2023-06-26T09:50:28;2.72;;;0.93;;
67839;SDS011;54636;51.684;5.142;2023-06-26T09:52:54;2.50;;;0.82;;
67839;SDS011;54636;51.684;5.142;2023-06-26T09:55:20;3.58;;;1.15;;
67839;SDS011;54636;51.684;5.142;2023-06-26T09:57:51;4.38;;;1.73;;
67839;SDS011;54636;51.684;5.142;2023-06-26T10:00:18;4.97;;;1.00;;
67839;SDS011;54636;51.684;5.142;2023-06-26T10:02:44;3.67;;;1.10;;
67839;SDS011;54636;51.684;5.142;2023-06-26T10:05:10;3.38;;;1.48;;
67839;SDS011;54636;51.684;5.142;2023-06-26T10:07:35;2.35;;;0.93;;
67839;SDS011;54636;51.684;5.142;2023-06-26T10:10:02;5.45;;;0.90;;
67839;SDS011;54636;51.684;5.142;2023-06-26T10:12:30;3.60;;;1.30;;
67839;SDS011;54636;51.684;5.142;2023-06-26T10:14:57;9.82;;;1.30;;
67839;SDS011;54636;51.684;5.142;2023-06-26T10:17:24;0.70;;;0.70;;
67839;SDS011;54636;51.684;5.142;2023-06-26T10:19:53;0.85;;;0.70;;
67839;SDS011;54636;51.684;5.142;2023-06-26T10:22:21;2.55;;;1.10;;
67839;SDS011;54636;51.684;5.142;2023-06-26T10:24:52;3.42;;;1.08;;
67839;SDS011;54636;51.684;5.142;2023-06-26T10:27:23;3.15;;;1.23;;
67839;SDS011;54636;51.684;5.142;2023-06-26T10:29:54;2.25;;;1.10;;
67839;SDS011;54636;51.684;5.142;2023-06-26T10:32:22;3.08;;;1.30;;
67839;SDS011;54636;51.684;5.142;2023-06-26T10:34:50;2.77;;;1.20;;
67839;SDS011;54636;51.684;5.142;2023-06-26T10:37:16;2.90;;;1.15;;
67839;SDS011;54636;51.684;5.142;2023-06-26T10:39:51;1.83;;;0.98;;
67839;SDS011;54636;51.684;5.142;2023-06-26T10:42:19;1.90;;;0.90;;
67839;SDS011;54636;51.684;5.142;2023-06-26T10:44:58;4.07;;;1.20;;
67839;SDS011;54636;51.684;5.142;2023-06-26T10:47:34;5.00;;;0.80;;
67839;SDS011;54636;51.684;5.142;2023-06-26T10:50:18;5.95;;;0.70;;
67839;SDS011;54636;51.684;5.142;2023-06-26T10:52:45;2.83;;;1.00;;
67839;SDS011;54636;51.684;5.142;2023-06-26T10:55:10;1.05;;;0.88;;
67839;SDS011;54636;51.684;5.142;2023-06-26T10:57:36;5.65;;;0.80;;
67839;SDS011;54636;51.684;5.142;2023-06-26T11:00:09;6.13;;;0.77;;
67839;SDS011;54636;51.684;5.142;2023-06-26T11:02:51;1.60;;;0.73;;
67839;SDS011;54636;51.684;5.142;2023-06-26T11:05:26;4.22;;;1.35;;
67839;SDS011;54636;51.684;5.142;2023-06-26T11:08:03;3.55;;;1.10;;
67839;SDS011;54636;51.684;5.142;2023-06-26T11:13:33;2.92;;;1.30;;
67839;SDS011;54636;51.684;5.142;2023-06-26T11:16:00;1.92;;;1.10;;
67839;SDS011;54636;51.684;5.142;2023-06-26T11:18:26;2.00;;;1.10;;
67839;SDS011;54636;51.684;5.142;2023-06-26T11:20:52;6.35;;;1.35;;
67839;SDS011;54636;51.684;5.142;2023-06-26T11:23:20;3.55;;;0.98;;
67839;SDS011;54636;51.684;5.142;2023-06-26T11:25:49;2.42;;;0.98;;
67839;SDS011;54636;51.684;5.142;2023-06-26T11:28:14;2.03;;;1.00;;
67839;SDS011;54636;51.684;5.142;2023-06-26T11:30:39;6.10;;;1.05;;
67839;SDS011;54636;51.684;5.142;2023-06-26T11:33:09;4.13;;;1.50;;
67839;SDS011;54636;51.684;5.142;2023-06-26T11:35:35;4.35;;;1.48;;
67839;SDS011;54636;51.684;5.142;2023-06-26T11:38:02;1.52;;;1.23;;
67839;SDS011;54636;51.684;5.142;2023-06-26T11:40:34;6.97;;;1.88;;
67839;SDS011;54636;51.684;5.142;2023-06-26T11:43:02;4.18;;;1.40;;
67839;SDS011;54636;51.684;5.142;2023-06-26T11:45:29;4.57;;;1.30;;
67839;SDS011;54636;51.684;5.142;2023-06-26T11:47:56;6.47;;;1.48;;
67839;SDS011;54636;51.684;5.142;2023-06-26T11:50:22;2.28;;;1.58;;
67839;SDS011;54636;51.684;5.142;2023-06-26T11:52:54;3.22;;;1.05;;
67839;SDS011;54636;51.684;5.142;2023-06-26T11:55:22;2.75;;;1.13;;
67839;SDS011;54636;51.684;5.142;2023-06-26T11:57:49;5.75;;;1.27;;
67839;SDS011;54636;51.684;5.142;2023-06-26T12:00:15;2.20;;;0.85;;
67839;SDS011;54636;51.684;5.142;2023-06-26T12:02:45;4.72;;;1.17;;
67839;SDS011;54636;51.684;5.142;2023-06-26T12:05:15;1.83;;;0.88;;
67839;SDS011;54636;51.684;5.142;2023-06-26T12:07:46;1.40;;;0.77;;
67839;SDS011;54636;51.684;5.142;2023-06-26T12:10:13;1.45;;;0.90;;
67839;SDS011;54636;51.684;5.142;2023-06-26T12:12:40;6.30;;;0.90;;
67839;SDS011;54636;51.684;5.142;2023-06-26T12:15:07;3.42;;;1.17;;
67839;SDS011;54636;51.684;5.142;2023-06-26T12:17:33;2.67;;;1.30;;
67839;SDS011;54636;51.684;5.142;2023-06-26T12:20:04;3.00;;;1.00;;
67839;SDS011;54636;51.684;5.142;2023-06-26T12:22:33;1.15;;;0.73;;
67839;SDS011;54636;51.684;5.142;2023-06-26T12:25:00;2.20;;;1.00;;
67839;SDS011;54636;51.684;5.142;2023-06-26T12:27:25;2.67;;;0.95;;
67839;SDS011;54636;51.684;5.142;2023-06-26T12:29:51;2.78;;;0.80;;
67839;SDS011;54636;51.684;5.142;2023-06-26T12:32:18;0.77;;;0.60;;
67839;SDS011;54636;51.684;5.142;2023-06-26T12:34:48;2.15;;;0.85;;
67839;SDS011;54636;51.684;5.142;2023-06-26T12:37:15;1.63;;;0.68;;
67839;SDS011;54636;51.684;5.142;2023-06-26T12:39:47;0.80;;;0.80;;
67839;SDS011;54636;51.684;5.142;2023-06-26T12:42:18;1.50;;;0.75;;
67839;SDS011;54636;51.684;5.142;2023-06-26T12:44:45;1.00;;;0.73;;
67839;SDS011;54636;51.684;5.142;2023-06-26T12:47:11;3.70;;;0.88;;
67839;SDS011;54636;51.684;5.142;2023-06-26T12:49:40;1.77;;;0.90;;
67839;SDS011;54636;51.684;5.142;2023-06-26T12:52:07;2.17;;;0.75;;
67839;SDS011;54636;51.684;5.142;2023-06-26T12:54:34;2.42;;;1.00;;
67839;SDS011;54636;51.684;5.142;2023-06-26T12:57:01;3.92;;;0.90;;
67839;SDS011;54636;51.684;5.142;2023-06-26T12:59:28;2.28;;;0.77;;
67839;SDS011;54636;51.684;5.142;2023-06-26T13:01:54;1.30;;;0.80;;
67839;SDS011;54636;51.684;5.142;2023-06-26T13:04:20;1.75;;;1.10;;
67839;SDS011;54636;51.684;5.142;2023-06-26T13:06:45;2.80;;;0.90;;
67839;SDS011;54636;51.684;5.142;2023-06-26T13:09:11;1.83;;;1.02;;
67839;SDS011;54636;51.684;5.142;2023-06-26T13:11:37;3.63;;;0.90;;
67839;SDS011;54636;51.684;5.142;2023-06-26T13:14:02;0.73;;;0.73;;
67839;SDS011;54636;51.684;5.142;2023-06-26T13:16:28;4.97;;;0.80;;
67839;SDS011;54636;51.684;5.142;2023-06-26T13:18:54;1.13;;;0.85;;
67839;SDS011;54636;51.684;5.142;2023-06-26T13:21:20;3.58;;;1.05;;
67839;SDS011;54636;51.684;5.142;2023-06-26T13:23:46;1.85;;;1.02;;
67839;SDS011;54636;51.684;5.142;2023-06-26T13:26:12;2.00;;;1.00;;
67839;SDS011;54636;51.684;5.142;2023-06-26T13:28:38;2.28;;;0.95;;
67839;SDS011;54636;51.684;5.142;2023-06-26T13:31:03;3.38;;;1.05;;
67839;SDS011;54636;51.684;5.142;2023-06-26T13:33:29;1.48;;;0.90;;
67839;SDS011;54636;51.684;5.142;2023-06-26T13:35:55;1.17;;;0.70;;
67839;SDS011;54636;51.684;5.142;2023-06-26T13:38:21;1.73;;;0.90;;
67839;SDS011;54636;51.684;5.142;2023-06-26T13:40:51;2.40;;;0.88;;
67839;SDS011;54636;51.684;5.142;2023-06-26T13:43:18;1.15;;;1.00;;
67839;SDS011;54636;51.684;5.142;2023-06-26T13:45:44;3.30;;;0.93;;
67839;SDS011;54636;51.684;5.142;2023-06-26T13:48:10;0.85;;;0.75;;
67839;SDS011;54636;51.684;5.142;2023-06-26T13:50:35;1.85;;;0.80;;
67839;SDS011;54636;51.684;5.142;2023-06-26T13:53:01;1.77;;;0.80;;
67839;SDS011;54636;51.684;5.142;2023-06-26T13:55:27;2.85;;;1.00;;
67839;SDS011;54636;51.684;5.142;2023-06-26T13:57:52;1.10;;;0.63;;
67839;SDS011;54636;51.684;5.142;2023-06-26T14:00:18;1.85;;;1.23;;
67839;SDS011;54636;51.684;5.142;2023-06-26T14:02:45;1.40;;;0.80;;
67839;SDS011;54636;51.684;5.142;2023-06-26T14:05:11;1.75;;;0.90;;
67839;SDS011;54636;51.684;5.142;2023-06-26T14:07:37;2.55;;;0.82;;
67839;SDS011;54636;51.684;5.142;2023-06-26T14:10:03;0.80;;;0.80;;
67839;SDS011;54636;51.684;5.142;2023-06-26T14:12:30;1.67;;;1.00;;
67839;SDS011;54636;51.684;5.142;2023-06-26T14:14:55;1.17;;;0.90;;
67839;SDS011;54636;51.684;5.142;2023-06-26T14:17:21;4.00;;;1.00;;
67839;SDS011;54636;51.684;5.142;2023-06-26T14:19:49;2.35;;;0.98;;
67839;SDS011;54636;51.684;5.142;2023-06-26T14:22:14;3.67;;;0.90;;
67839;SDS011;54636;51.684;5.142;2023-06-26T14:24:40;2.92;;;1.27;;
67839;SDS011;54636;51.684;5.142;2023-06-26T14:27:05;1.00;;;0.65;;
67839;SDS011;54636;51.684;5.142;2023-06-26T14:29:31;5.32;;;2.38;;
67839;SDS011;54636;51.684;5.142;2023-06-26T14:31:56;2.38;;;0.95;;
67839;SDS011;54636;51.684;5.142;2023-06-26T14:34:22;2.13;;;1.00;;
67839;SDS011;54636;51.684;5.142;2023-06-26T14:36:47;3.92;;;1.17;;
67839;SDS011;54636;51.684;5.142;2023-06-26T14:39:13;0.95;;;0.95;;
67839;SDS011;54636;51.684;5.142;2023-06-26T14:41:38;1.95;;;0.93;;
67839;SDS011;54636;51.684;5.142;2023-06-26T14:44:03;1.25;;;0.77;;
67839;SDS011;54636;51.684;5.142;2023-06-26T14:46:29;1.38;;;0.90;;
67839;SDS011;54636;51.684;5.142;2023-06-26T14:48:55;1.30;;;0.88;;
67839;SDS011;54636;51.684;5.142;2023-06-26T14:51:20;1.50;;;1.05;;
67839;SDS011;54636;51.684;5.142;2023-06-26T14:53:46;4.93;;;0.70;;